Time;durP1;ratioP1;P1;durP2;ratioP2;P2;SDS_P1;SDS_P2;PMS_P1;PMS_P2;Temp;Humidity;BMP_temperature;BMP_pressure;BME280_temperature;BME280_humidity;BME280_pressure;Samples;Min_cycle;Max_cycle;Signal;HPM_P1;HPM_P2
2021/03/03 00:01:19;;;;;;;40.30;20.70;;;4.60;99.90;;;;;;4975702;28;20410;-81
2021/03/03 00:03:46;;;;;;;43.72;21.63;;;4.60;99.90;;;;;;4973531;28;20057;-81
2021/03/03 00:06:12;;;;;;;42.97;20.63;;;4.60;99.90;;;;;;4975978;28;20057;-81
2021/03/03 00:08:38;;;;;;;39.15;20.25;;;4.60;99.90;;;;;;4971996;28;20058;-81
2021/03/03 00:11:05;;;;;;;41.33;19.25;;;4.60;99.90;;;;;;4987893;28;20149;-81
2021/03/03 00:13:31;;;;;;;39.25;19.42;;;4.50;99.90;;;;;;4972913;28;20053;-81
2021/03/03 00:15:57;;;;;;;43.22;19.75;;;4.50;99.90;;;;;;4971766;28;20064;-81
2021/03/03 00:18:24;;;;;;;50.83;21.38;;;4.50;99.90;;;;;;4966169;28;21851;-81
2021/03/03 00:20:50;;;;;;;45.47;20.10;;;4.50;99.90;;;;;;4976106;28;20070;-81
2021/03/03 00:23:16;;;;;;;45.30;20.67;;;4.50;99.90;;;;;;4977125;28;20055;-81
2021/03/03 00:25:43;;;;;;;44.08;20.75;;;4.40;99.90;;;;;;4973669;28;20074;-81
2021/03/03 00:28:09;;;;;;;43.40;19.20;;;4.40;99.90;;;;;;4983378;28;20057;-81
2021/03/03 00:30:35;;;;;;;37.58;19.83;;;4.40;99.90;;;;;;4978267;28;20046;-81
2021/03/03 00:33:01;;;;;;;42.20;21.35;;;4.40;99.90;;;;;;4976023;28;20061;-81
2021/03/03 00:35:28;;;;;;;39.58;19.80;;;4.30;99.90;;;;;;4959145;28;20054;-81
2021/03/03 00:37:54;;;;;;;38.72;19.45;;;4.30;99.90;;;;;;4970900;28;20717;-81
2021/03/03 00:40:20;;;;;;;38.70;19.40;;;4.30;99.90;;;;;;4973626;28;20109;-81
2021/03/03 00:42:47;;;;;;;38.05;19.60;;;4.30;99.90;;;;;;4974749;28;20050;-81
2021/03/03 00:45:13;;;;;;;39.67;19.67;;;4.30;99.90;;;;;;4993061;28;20136;-81
2021/03/03 00:47:40;;;;;;;38.90;19.83;;;4.20;99.90;;;;;;4976095;28;21557;-81
2021/03/03 00:50:07;;;;;;;35.55;18.88;;;4.20;99.90;;;;;;4977598;28;20042;-80
2021/03/03 00:52:33;;;;;;;35.65;18.88;;;4.20;99.90;;;;;;4996769;28;20097;-80
2021/03/03 00:54:59;;;;;;;39.03;19.42;;;4.20;99.90;;;;;;4981186;28;20127;-81
2021/03/03 00:57:25;;;;;;;38.45;18.88;;;4.10;99.90;;;;;;4984973;28;20080;-80
2021/03/03 00:59:52;;;;;;;39.05;20.00;;;4.10;99.90;;;;;;4984152;28;20138;-81
2021/03/03 01:02:18;;;;;;;40.30;19.92;;;4.10;99.90;;;;;;4993041;28;20085;-81
2021/03/03 01:04:45;;;;;;;42.10;19.10;;;4.10;99.90;;;;;;4993743;28;20057;-81
2021/03/03 01:07:11;;;;;;;37.03;18.92;;;4.00;99.90;;;;;;4995068;28;20060;-80
2021/03/03 01:09:38;;;;;;;39.00;19.42;;;4.00;99.90;;;;;;4993093;28;20462;-81
2021/03/03 01:12:05;;;;;;;44.10;19.00;;;3.90;99.90;;;;;;4994320;28;20060;-80
2021/03/03 01:14:31;;;;;;;37.75;19.40;;;3.90;99.90;;;;;;4982278;28;20060;-81
2021/03/03 01:17:00;;;;;;;41.05;20.15;;;3.90;99.90;;;;;;4980209;28;20054;-81
2021/03/03 01:19:26;;;;;;;40.80;19.63;;;3.90;99.90;;;;;;4986688;28;20050;-80
2021/03/03 01:21:52;;;;;;;43.38;19.55;;;3.80;99.90;;;;;;4982214;28;20054;-80
2021/03/03 01:24:19;;;;;;;38.33;20.23;;;3.80;99.90;;;;;;4991711;28;20413;-81
2021/03/03 01:26:45;;;;;;;43.88;18.73;;;3.80;99.90;;;;;;4980905;28;20569;-81
2021/03/03 01:29:11;;;;;;;42.08;20.27;;;3.70;99.90;;;;;;4984153;28;20058;-81
2021/03/03 01:31:37;;;;;;;38.67;19.15;;;3.70;99.90;;;;;;4982690;28;20114;-80
2021/03/03 01:34:04;;;;;;;41.42;20.65;;;3.70;99.90;;;;;;4996231;28;20050;-81
2021/03/03 01:36:30;;;;;;;46.35;19.83;;;3.70;99.90;;;;;;4983332;28;20066;-80
2021/03/03 01:38:56;;;;;;;43.17;19.95;;;3.70;99.90;;;;;;4978092;28;20060;-81
2021/03/03 01:41:23;;;;;;;36.22;18.67;;;3.60;99.90;;;;;;4977273;28;20057;-81
2021/03/03 01:43:49;;;;;;;37.80;17.60;;;3.70;99.90;;;;;;4982588;28;20058;-81
2021/03/03 01:46:15;;;;;;;41.55;18.88;;;3.60;99.90;;;;;;4972235;28;20101;-81
2021/03/03 01:48:42;;;;;;;43.25;20.67;;;3.60;99.90;;;;;;4976373;28;20046;-81
2021/03/03 01:51:09;;;;;;;49.58;20.95;;;3.60;99.90;;;;;;4975090;28;20093;-81
2021/03/03 01:53:35;;;;;;;40.88;19.17;;;3.60;99.90;;;;;;4976887;28;20058;-80
2021/03/03 01:56:02;;;;;;;34.92;18.88;;;3.50;99.90;;;;;;4993016;28;20512;-81
2021/03/03 01:58:28;;;;;;;41.70;19.33;;;3.50;99.90;;;;;;4991495;28;20065;-81
2021/03/03 02:01:14;;;;;;;34.67;18.17;;;3.50;99.90;;;;;;4980937;28;20594;-81
2021/03/03 02:03:40;;;;;;;41.13;18.95;;;3.50;99.90;;;;;;4982355;28;20058;-81
2021/03/03 02:06:14;;;;;;;39.65;18.50;;;3.50;99.90;;;;;;4993839;28;20067;-80
2021/03/03 02:08:48;;;;;;;40.35;19.42;;;3.40;99.90;;;;;;4989850;28;20046;-81
2021/03/03 02:11:30;;;;;;;37.10;18.85;;;3.40;99.90;;;;;;4998288;28;20097;-80
2021/03/03 02:14:03;;;;;;;43.40;20.05;;;3.40;99.90;;;;;;4995291;28;20478;-81
2021/03/03 02:16:31;;;;;;;39.97;19.25;;;3.40;99.90;;;;;;4983169;28;20066;-80
2021/03/03 02:18:59;;;;;;;38.00;19.33;;;3.40;99.90;;;;;;4997879;28;20050;-80
2021/03/03 02:21:35;;;;;;;40.10;20.45;;;3.30;99.90;;;;;;4991755;28;20141;-80
2021/03/03 02:24:18;;;;;;;44.25;19.80;;;3.30;99.90;;;;;;4990881;28;20046;-80
2021/03/03 02:26:46;;;;;;;38.85;19.52;;;3.30;99.90;;;;;;4994681;28;20490;-80
2021/03/03 02:29:23;;;;;;;40.45;19.70;;;3.30;99.90;;;;;;5010050;28;20061;-81
2021/03/03 02:31:51;;;;;;;41.33;20.27;;;3.30;99.90;;;;;;4991169;28;20055;-80
2021/03/03 02:34:20;;;;;;;41.25;19.85;;;3.20;99.90;;;;;;4989225;28;20088;-80
2021/03/03 02:36:47;;;;;;;44.45;21.02;;;3.20;99.90;;;;;;4992398;28;20065;-81
2021/03/03 02:39:16;;;;;;;36.75;18.27;;;3.20;99.90;;;;;;4992359;28;20848;-80
2021/03/03 02:41:43;;;;;;;36.78;19.20;;;3.20;99.90;;;;;;4991117;28;20093;-80
2021/03/03 02:44:11;;;;;;;37.58;19.27;;;3.20;99.90;;;;;;4992327;28;20076;-80
2021/03/03 02:46:41;;;;;;;38.65;19.20;;;3.20;99.90;;;;;;5003290;28;20057;-80
2021/03/03 02:49:08;;;;;;;39.10;19.70;;;3.20;99.90;;;;;;4992917;28;20046;-81
2021/03/03 02:51:35;;;;;;;41.80;19.70;;;3.20;99.90;;;;;;4989334;28;20129;-81
2021/03/03 02:54:01;;;;;;;40.35;20.23;;;3.10;99.90;;;;;;4993643;28;20122;-81
2021/03/03 02:56:28;;;;;;;42.28;20.23;;;3.10;99.90;;;;;;5008720;28;20054;-80
2021/03/03 02:58:58;;;;;;;39.45;19.05;;;3.10;99.90;;;;;;4991831;28;20117;-81
2021/03/03 03:01:26;;;;;;;35.50;16.80;;;3.00;99.90;;;;;;5001628;28;20077;-80
2021/03/03 03:04:01;;;;;;;44.03;19.85;;;3.00;99.90;;;;;;5006206;28;20081;-81
2021/03/03 03:06:35;;;;;;;46.40;19.52;;;3.00;99.90;;;;;;4998156;28;20121;-80
2021/03/03 03:09:08;;;;;;;36.30;19.48;;;3.00;99.90;;;;;;4989838;28;20514;-80
2021/03/03 03:11:41;;;;;;;37.85;18.67;;;3.00;99.90;;;;;;4977941;28;20136;-81
2021/03/03 03:14:10;;;;;;;37.28;18.60;;;3.00;99.90;;;;;;4979951;28;20110;-80
2021/03/03 03:16:38;;;;;;;37.50;18.48;;;2.90;99.90;;;;;;4986669;28;20058;-79
2021/03/03 03:19:12;;;;;;;44.95;19.02;;;2.90;99.90;;;;;;4984520;28;20093;-81
2021/03/03 03:21:44;;;;;;;41.05;19.73;;;2.90;99.90;;;;;;4993966;28;20133;-81
2021/03/03 03:24:12;;;;;;;37.78;18.30;;;2.90;99.90;;;;;;4975470;28;20057;-80
2021/03/03 03:26:39;;;;;;;38.67;18.27;;;2.80;99.90;;;;;;4993868;28;20074;-80
2021/03/03 03:29:08;;;;;;;36.38;18.55;;;2.80;99.90;;;;;;4995786;28;20089;-81
2021/03/03 03:31:38;;;;;;;32.65;17.98;;;2.80;99.90;;;;;;4998782;28;20043;-81
2021/03/03 03:34:08;;;;;;;38.13;18.15;;;2.70;99.90;;;;;;4995117;28;20054;-81
2021/03/03 03:36:36;;;;;;;37.35;18.33;;;2.70;99.90;;;;;;4979545;28;20058;-81
2021/03/03 03:39:08;;;;;;;37.58;19.05;;;2.70;99.90;;;;;;4977984;28;20052;-81
2021/03/03 03:41:36;;;;;;;38.55;19.80;;;2.70;99.90;;;;;;4961788;28;20133;-81
2021/03/03 03:44:05;;;;;;;35.17;17.98;;;2.70;99.90;;;;;;4976760;28;20070;-81
2021/03/03 03:46:32;;;;;;;34.75;17.35;;;2.70;99.90;;;;;;5004163;28;20057;-81
2021/03/03 03:49:00;;;;;;;37.30;18.65;;;2.70;99.90;;;;;;5007671;28;20054;-80
2021/03/03 03:51:27;;;;;;;37.30;18.75;;;2.60;99.90;;;;;;5001361;28;20153;-80
2021/03/03 03:53:53;;;;;;;42.30;18.13;;;2.60;99.90;;;;;;5016734;28;20390;-81
2021/03/03 03:56:19;;;;;;;40.50;18.88;;;2.60;99.90;;;;;;5020362;28;20113;-80
2021/03/03 03:58:45;;;;;;;36.83;19.80;;;2.60;99.90;;;;;;5006092;28;20068;-80
2021/03/03 04:01:12;;;;;;;38.38;18.85;;;2.60;99.90;;;;;;5020748;28;20050;-81
2021/03/03 04:03:38;;;;;;;36.42;18.00;;;2.50;99.90;;;;;;5018303;28;20105;-79
2021/03/03 04:06:05;;;;;;;38.45;19.65;;;2.50;99.90;;;;;;5023941;28;20060;-80
2021/03/03 04:08:31;;;;;;;40.05;17.83;;;2.50;99.90;;;;;;5021275;28;20114;-81
2021/03/03 04:10:57;;;;;;;40.13;19.73;;;2.50;99.90;;;;;;5024671;28;20110;-80
2021/03/03 04:13:25;;;;;;;42.28;18.98;;;2.50;99.90;;;;;;5007320;28;20053;-81
2021/03/03 04:15:51;;;;;;;37.42;18.70;;;2.50;99.90;;;;;;5008075;28;20069;-80
2021/03/03 04:18:18;;;;;;;35.53;18.83;;;2.50;99.90;;;;;;5020567;28;20045;-80
2021/03/03 04:20:44;;;;;;;37.75;19.58;;;2.40;99.90;;;;;;5013446;28;20050;-80
2021/03/03 04:23:11;;;;;;;39.22;19.38;;;2.40;99.90;;;;;;5008071;28;20064;-80
2021/03/03 04:25:38;;;;;;;42.13;20.33;;;2.40;99.90;;;;;;5007709;28;20075;-81
2021/03/03 04:28:06;;;;;;;43.08;21.33;;;2.40;99.90;;;;;;5005606;28;20097;-81
2021/03/03 04:30:34;;;;;;;39.58;19.45;;;2.40;99.90;;;;;;5020246;28;20030;-81
2021/03/03 04:33:08;;;;;;;39.97;20.58;;;2.40;99.90;;;;;;4990794;28;20022;-80
2021/03/03 04:35:36;;;;;;;41.53;20.33;;;2.30;99.90;;;;;;5005496;28;20383;-81
2021/03/03 04:38:03;;;;;;;44.70;21.00;;;2.30;99.90;;;;;;5015794;28;20042;-81
2021/03/03 04:40:29;;;;;;;41.25;19.45;;;2.30;99.90;;;;;;5016796;28;20075;-81
2021/03/03 04:42:55;;;;;;;40.95;20.75;;;2.30;99.90;;;;;;4997842;28;20053;-81
2021/03/03 04:45:22;;;;;;;53.03;22.80;;;2.30;99.90;;;;;;5016358;28;20180;-81
2021/03/03 04:47:48;;;;;;;50.95;21.98;;;2.30;99.90;;;;;;5015104;28;20050;-81
2021/03/03 04:50:15;;;;;;;43.17;19.58;;;2.30;99.90;;;;;;5006300;28;20052;-81
2021/03/03 04:52:41;;;;;;;47.80;21.02;;;2.30;99.90;;;;;;5001535;28;20572;-81
2021/03/03 04:55:07;;;;;;;45.05;22.10;;;2.30;99.90;;;;;;5005415;28;20496;-81
2021/03/03 04:57:34;;;;;;;45.22;21.35;;;2.20;99.90;;;;;;5016133;28;20049;-80
2021/03/03 05:00:00;;;;;;;41.97;20.73;;;2.20;99.90;;;;;;5016470;28;20050;-81
2021/03/03 05:02:26;;;;;;;42.28;21.15;;;2.20;99.90;;;;;;5004992;28;20114;-81
2021/03/03 05:04:53;;;;;;;43.28;20.33;;;2.20;99.90;;;;;;5012828;28;20153;-81
2021/03/03 05:07:19;;;;;;;45.60;20.20;;;2.20;99.90;;;;;;5015829;28;20160;-81
2021/03/03 05:09:46;;;;;;;50.05;21.52;;;2.10;99.90;;;;;;5000383;28;20045;-81
2021/03/03 05:12:12;;;;;;;52.97;21.92;;;2.10;99.90;;;;;;5000255;28;20117;-80
2021/03/03 05:14:38;;;;;;;52.03;22.85;;;2.10;99.90;;;;;;5000372;28;20053;-81
2021/03/03 05:17:04;;;;;;;59.55;24.13;;;2.10;99.90;;;;;;5015174;28;20118;-81
2021/03/03 05:19:31;;;;;;;62.25;26.35;;;2.10;99.90;;;;;;4993325;28;20112;-81
2021/03/03 05:21:59;;;;;;;61.75;27.42;;;2.10;99.90;;;;;;5002770;28;20045;-80
2021/03/03 05:24:25;;;;;;;61.58;25.75;;;2.10;99.90;;;;;;4997278;28;20054;-81
2021/03/03 05:26:52;;;;;;;57.90;26.05;;;2.10;99.90;;;;;;5014436;28;20066;-80
2021/03/03 05:29:18;;;;;;;59.90;24.45;;;2.10;99.90;;;;;;4996369;28;20073;-81
2021/03/03 05:31:45;;;;;;;56.88;24.10;;;2.10;99.90;;;;;;4992885;28;20081;-81
2021/03/03 05:34:11;;;;;;;59.67;23.45;;;2.10;99.90;;;;;;5010320;28;20045;-81
2021/03/03 05:36:37;;;;;;;58.85;23.85;;;2.10;99.90;;;;;;4993363;28;20596;-81
2021/03/03 05:39:04;;;;;;;62.67;24.98;;;2.10;99.90;;;;;;5013606;28;20056;-81
2021/03/03 05:41:30;;;;;;;63.10;26.33;;;2.10;99.90;;;;;;5000053;28;20125;-81
2021/03/03 05:43:57;;;;;;;71.60;26.50;;;2.20;99.90;;;;;;5011356;28;20168;-81
2021/03/03 05:46:24;;;;;;;75.10;27.90;;;2.10;99.90;;;;;;5010524;28;20060;-81
2021/03/03 05:48:55;;;;;;;71.95;28.50;;;2.20;99.90;;;;;;5009623;28;20053;-82
2021/03/03 05:51:24;;;;;;;71.93;28.20;;;2.10;99.90;;;;;;5000574;28;20156;-81
2021/03/03 05:53:51;;;;;;;73.50;27.52;;;2.20;99.90;;;;;;5011858;28;20072;-81
2021/03/03 05:56:21;;;;;;;63.78;26.88;;;2.20;99.90;;;;;;5011993;28;20088;-80
2021/03/03 05:58:49;;;;;;;76.15;25.38;;;2.20;99.90;;;;;;5009476;28;20032;-80
2021/03/03 06:01:16;;;;;;;77.55;27.13;;;2.20;99.90;;;;;;4999420;28;20045;-81
2021/03/03 06:03:43;;;;;;;70.88;27.40;;;2.20;99.90;;;;;;5010708;28;20042;-82
2021/03/03 06:06:11;;;;;;;60.58;25.50;;;2.20;99.90;;;;;;5009402;28;20054;-82
2021/03/03 06:08:37;;;;;;;70.95;26.25;;;2.30;99.90;;;;;;5009390;28;20042;-81
2021/03/03 06:11:04;;;;;;;78.75;28.42;;;2.30;99.90;;;;;;5014201;28;20073;-80
2021/03/03 06:13:31;;;;;;;64.65;26.55;;;2.30;99.90;;;;;;5013478;28;20153;-81
2021/03/03 06:15:58;;;;;;;70.47;26.83;;;2.30;99.90;;;;;;5014233;28;20113;-81
2021/03/03 06:18:25;;;;;;;71.95;28.98;;;2.30;99.90;;;;;;5014896;28;20049;-81
2021/03/03 06:20:54;;;;;;;70.43;26.33;;;2.30;99.90;;;;;;4995657;28;20054;-79
2021/03/03 06:23:25;;;;;;;62.90;26.83;;;2.30;99.90;;;;;;4995363;28;20077;-82
2021/03/03 06:26:03;;;;;;;68.50;27.52;;;2.30;99.90;;;;;;5011167;28;20121;-80
2021/03/03 06:28:37;;;;;;;64.65;27.20;;;2.30;99.90;;;;;;5009382;28;20534;-79
2021/03/03 06:31:26;;;;;;;79.00;27.63;;;2.40;99.90;;;;;;5012091;28;20042;-79
2021/03/03 06:34:08;;;;;;;86.68;27.20;;;2.40;99.90;;;;;;5011237;28;20049;-79
2021/03/03 06:36:35;;;;;;;75.35;27.55;;;2.40;99.90;;;;;;4996049;28;20046;-79
2021/03/03 06:39:15;;;;;;;72.07;28.75;;;2.40;99.90;;;;;;5011118;28;20081;-79
2021/03/03 06:41:41;;;;;;;66.80;27.48;;;2.40;99.90;;;;;;4994660;28;20145;-82
2021/03/03 06:44:08;;;;;;;76.15;28.67;;;2.40;99.90;;;;;;4994210;28;20105;-80
2021/03/03 06:46:34;;;;;;;85.47;31.23;;;2.40;99.90;;;;;;5000792;28;20058;-79
2021/03/03 06:49:01;;;;;;;75.30;27.75;;;2.40;99.90;;;;;;5012794;28;20076;-81
2021/03/03 06:51:30;;;;;;;62.55;25.95;;;2.50;99.90;;;;;;5013455;28;20509;-78
2021/03/03 06:54:05;;;;;;;69.53;27.02;;;2.50;99.90;;;;;;5000405;28;20144;-80
2021/03/03 06:56:45;;;;;;;77.63;27.25;;;2.50;99.90;;;;;;5011654;28;20113;-81
2021/03/03 06:59:11;;;;;;;75.07;27.13;;;2.50;99.90;;;;;;5013308;28;20052;-79
2021/03/03 07:01:37;;;;;;;67.45;28.67;;;2.60;99.90;;;;;;5008869;28;20141;-79
2021/03/03 07:04:27;;;;;;;72.57;27.30;;;2.60;99.90;;;;;;4993748;28;20057;-79
2021/03/03 07:06:59;;;;;;;63.83;26.33;;;2.60;99.90;;;;;;5010235;28;20046;-79
2021/03/03 07:09:36;;;;;;;70.70;27.60;;;2.70;99.90;;;;;;4999737;28;20049;-81
2021/03/03 07:12:05;;;;;;;69.72;25.55;;;2.70;99.90;;;;;;4996022;28;20056;-79
2021/03/03 07:14:32;;;;;;;72.00;28.02;;;2.80;99.90;;;;;;4998365;28;20073;-79
2021/03/03 07:17:04;;;;;;;61.97;24.88;;;2.80;99.90;;;;;;5004494;28;20065;-79
2021/03/03 07:19:31;;;;;;;55.90;24.15;;;2.80;99.90;;;;;;5009274;28;20662;-79
2021/03/03 07:21:58;;;;;;;68.40;25.40;;;2.90;99.90;;;;;;5006003;28;20054;-79
2021/03/03 07:24:25;;;;;;;61.40;25.95;;;3.00;99.90;;;;;;5011492;28;20054;-79
2021/03/03 07:26:52;;;;;;;64.93;27.67;;;3.00;99.90;;;;;;5009402;28;20145;-78
2021/03/03 07:29:19;;;;;;;67.68;27.10;;;3.20;99.90;;;;;;5007656;28;20060;-77
2021/03/03 07:31:45;;;;;;;62.38;27.27;;;3.30;99.90;;;;;;4993987;28;20042;-80
2021/03/03 07:34:12;;;;;;;60.85;26.25;;;3.40;99.90;;;;;;4994744;28;20064;-80
2021/03/03 07:36:39;;;;;;;61.53;25.50;;;3.50;99.90;;;;;;4998058;28;20084;-79
2021/03/03 07:39:09;;;;;;;62.10;24.67;;;3.60;99.90;;;;;;4991189;28;21517;-80
2021/03/03 07:41:47;;;;;;;59.53;26.05;;;3.70;99.90;;;;;;5012728;28;20478;-80
2021/03/03 07:44:19;;;;;;;60.63;26.65;;;3.80;99.90;;;;;;5013494;28;20110;-79
2021/03/03 07:46:49;;;;;;;63.60;25.63;;;4.00;99.90;;;;;;5010516;28;20482;-79
2021/03/03 07:49:24;;;;;;;65.15;27.85;;;4.10;99.90;;;;;;5011530;28;20535;-80
2021/03/03 07:51:51;;;;;;;59.47;26.48;;;4.30;99.90;;;;;;5005599;28;20046;-80
2021/03/03 07:54:17;;;;;;;61.05;26.48;;;4.50;99.90;;;;;;5008282;28;20054;-80
2021/03/03 07:56:44;;;;;;;56.78;26.20;;;4.60;99.90;;;;;;4997656;28;20049;-80
2021/03/03 07:59:11;;;;;;;59.30;26.90;;;4.70;99.90;;;;;;5005869;28;20084;-81
2021/03/03 08:01:38;;;;;;;54.78;26.13;;;4.90;99.90;;;;;;5005026;28;20048;-79
2021/03/03 08:04:06;;;;;;;60.33;27.63;;;5.00;99.90;;;;;;5018109;28;20100;-81
2021/03/03 08:06:38;;;;;;;58.42;26.77;;;5.10;99.90;;;;;;5003029;28;20054;-81
2021/03/03 08:09:09;;;;;;;53.35;25.63;;;5.20;99.90;;;;;;5007413;28;20686;-80
2021/03/03 08:11:40;;;;;;;58.85;26.25;;;5.30;99.90;;;;;;5003859;28;20073;-81
2021/03/03 08:14:29;;;;;;;56.83;26.90;;;5.40;99.90;;;;;;5003819;28;20128;-80
2021/03/03 08:16:59;;;;;;;64.65;25.92;;;5.50;99.90;;;;;;4997268;28;20050;-80
2021/03/03 08:19:47;;;;;;;59.60;26.25;;;5.70;99.90;;;;;;4998640;28;20057;-80
2021/03/03 08:22:13;;;;;;;61.55;26.58;;;5.70;99.90;;;;;;5011116;28;20576;-81
2021/03/03 08:24:40;;;;;;;63.25;27.23;;;5.80;99.90;;;;;;5001956;28;20941;-81
2021/03/03 08:27:30;;;;;;;63.00;27.63;;;5.90;99.90;;;;;;5012400;28;20050;-81
2021/03/03 08:30:11;;;;;;;69.05;27.20;;;6.00;99.90;;;;;;5013750;28;20073;-81
2021/03/03 08:32:37;;;;;;;73.80;28.90;;;6.10;99.90;;;;;;5017070;28;20101;-81
2021/03/03 08:35:07;;;;;;;108.20;30.05;;;6.10;99.90;;;;;;5015211;28;20069;-81
2021/03/03 08:37:36;;;;;;;76.65;26.63;;;6.10;99.90;;;;;;5018991;28;20050;-81
2021/03/03 08:40:24;;;;;;;88.13;27.00;;;6.10;99.90;;;;;;5009286;28;21164;-79
2021/03/03 08:42:50;;;;;;;85.07;24.08;;;6.10;99.90;;;;;;4981906;28;20050;-80
2021/03/03 08:45:17;;;;;;;83.88;24.58;;;6.10;99.90;;;;;;4980145;28;20155;-80
2021/03/03 08:47:48;;;;;;;61.75;22.50;;;6.10;99.90;;;;;;4994500;28;20113;-79
2021/03/03 08:50:33;;;;;;;92.07;21.05;;;6.20;99.90;;;;;;4979223;28;20046;-80
2021/03/03 08:53:27;;;;;;;45.05;20.55;;;6.20;99.90;;;;;;4978869;28;20082;-80
2021/03/03 08:55:55;;;;;;;64.32;19.60;;;6.20;99.90;;;;;;4978001;28;20106;-81
2021/03/03 08:58:33;;;;;;;72.78;20.73;;;6.30;99.90;;;;;;4994982;28;20046;-80
2021/03/03 09:01:00;;;;;;;58.85;19.45;;;6.30;99.90;;;;;;4973600;28;20054;-80
2021/03/03 09:03:26;;;;;;;67.22;20.33;;;6.30;99.90;;;;;;4994376;28;20049;-81
2021/03/03 09:05:57;;;;;;;63.40;19.45;;;6.30;99.90;;;;;;4979275;28;20047;-81
2021/03/03 09:08:24;;;;;;;50.72;19.83;;;6.40;99.90;;;;;;4980422;28;20076;-80
2021/03/03 09:10:52;;;;;;;73.07;20.65;;;6.40;99.90;;;;;;4975753;28;20050;-81
2021/03/03 09:13:29;;;;;;;68.40;19.52;;;6.50;99.90;;;;;;4984965;28;20054;-80
2021/03/03 09:16:03;;;;;;;49.00;19.13;;;6.60;99.90;;;;;;4976643;28;20061;-80
2021/03/03 09:18:30;;;;;;;43.75;19.80;;;6.60;99.90;;;;;;4994267;28;20046;-82
2021/03/03 09:21:11;;;;;;;37.95;18.83;;;6.60;99.90;;;;;;4977756;28;20070;-80
2021/03/03 09:23:40;;;;;;;43.53;19.40;;;6.60;99.90;;;;;;4979227;28;20035;-80
2021/03/03 09:26:26;;;;;;;42.17;19.63;;;6.60;99.90;;;;;;4991476;28;20130;-80
2021/03/03 09:28:53;;;;;;;40.78;20.83;;;6.70;99.90;;;;;;4976092;28;20050;-79
2021/03/03 09:31:36;;;;;;;40.30;21.38;;;6.70;99.90;;;;;;4993367;28;20115;-80
2021/03/03 09:34:04;;;;;;;39.25;20.10;;;6.80;99.90;;;;;;4977934;28;20054;-81
2021/03/03 09:36:30;;;;;;;39.13;19.05;;;6.90;99.90;;;;;;4978849;28;20074;-80
2021/03/03 09:39:00;;;;;;;43.50;19.65;;;7.00;99.90;;;;;;4975663;28;20130;-81
2021/03/03 09:41:27;;;;;;;44.75;20.35;;;7.10;99.90;;;;;;4993760;28;20050;-80
2021/03/03 09:44:02;;;;;;;39.63;20.45;;;7.10;99.90;;;;;;5006312;28;20139;-80
2021/03/03 09:46:58;;;;;;;37.70;20.20;;;7.10;99.90;;;;;;4984380;28;20057;-82
2021/03/03 09:49:29;;;;;;;43.70;20.73;;;7.10;99.90;;;;;;5007053;28;20129;-81
2021/03/03 09:51:58;;;;;;;48.47;22.10;;;7.10;99.90;;;;;;5007098;28;20133;-80
2021/03/03 09:54:35;;;;;;;39.08;22.05;;;7.10;99.90;;;;;;5014639;28;20100;-79
2021/03/03 09:57:02;;;;;;;44.75;21.98;;;7.10;99.90;;;;;;5000026;28;20100;-81
2021/03/03 09:59:31;;;;;;;48.60;22.83;;;7.10;99.90;;;;;;4997066;28;20141;-79
2021/03/03 10:01:58;;;;;;;59.90;25.40;;;7.20;99.90;;;;;;5005009;28;20497;-80
2021/03/03 10:04:26;;;;;;;66.75;25.90;;;7.30;99.90;;;;;;5012617;28;20066;-79
2021/03/03 10:06:54;;;;;;;65.90;26.85;;;7.30;99.90;;;;;;5000152;28;20120;-80
2021/03/03 10:09:21;;;;;;;59.38;26.02;;;7.40;99.90;;;;;;5006303;28;20073;-81
2021/03/03 10:11:47;;;;;;;52.38;23.08;;;7.40;99.90;;;;;;4999603;28;20167;-81
2021/03/03 10:14:14;;;;;;;46.00;22.85;;;7.50;99.90;;;;;;5003880;28;20110;-81
2021/03/03 10:16:41;;;;;;;43.17;22.38;;;7.60;99.90;;;;;;5003528;28;20064;-81
2021/03/03 10:19:12;;;;;;;42.75;22.50;;;7.70;99.90;;;;;;5003285;28;20042;-82
2021/03/03 10:21:45;;;;;;;48.03;24.45;;;7.80;99.90;;;;;;5013823;28;20058;-81
2021/03/03 10:24:16;;;;;;;55.00;27.88;;;7.80;99.90;;;;;;5006699;28;20576;-82
2021/03/03 10:26:47;;;;;;;55.10;28.35;;;7.90;99.90;;;;;;5015448;28;20099;-81
2021/03/03 10:29:31;;;;;;;53.85;27.25;;;7.90;99.90;;;;;;5015043;28;20053;-82
2021/03/03 10:32:07;;;;;;;51.78;27.73;;;7.80;99.90;;;;;;5012436;28;20057;-81
2021/03/03 10:34:33;;;;;;;48.70;26.65;;;7.70;99.90;;;;;;5014897;28;20050;-82
2021/03/03 10:37:00;;;;;;;49.47;26.63;;;7.60;99.90;;;;;;5006311;28;20050;-83
2021/03/03 10:39:28;;;;;;;49.05;26.77;;;7.60;99.90;;;;;;5016810;28;20053;-82
2021/03/03 10:42:04;;;;;;;47.45;27.42;;;7.60;99.90;;;;;;5002771;28;20072;-82
2021/03/03 10:44:41;;;;;;;53.55;27.08;;;7.70;99.90;;;;;;4998679;28;20081;-82
2021/03/03 10:47:08;;;;;;;44.35;24.77;;;7.70;99.90;;;;;;5002635;28;20074;-81
2021/03/03 10:49:39;;;;;;;49.38;27.02;;;7.80;99.90;;;;;;5015891;28;20054;-83
2021/03/03 10:52:21;;;;;;;43.92;25.45;;;7.80;99.90;;;;;;5005692;28;20117;-82
2021/03/03 10:54:47;;;;;;;48.78;25.30;;;7.80;99.90;;;;;;5003093;28;20055;-83
2021/03/03 10:57:13;;;;;;;45.17;24.67;;;7.80;99.90;;;;;;4992580;28;20462;-80
2021/03/03 10:59:41;;;;;;;48.75;26.10;;;7.90;99.90;;;;;;4992960;28;20073;-82
2021/03/03 11:02:08;;;;;;;47.38;25.77;;;7.80;99.90;;;;;;4991849;28;20101;-78
2021/03/03 11:04:41;;;;;;;41.60;23.98;;;7.80;99.90;;;;;;5000443;28;20139;-79
2021/03/03 11:07:10;;;;;;;42.78;24.85;;;7.90;99.90;;;;;;4988026;28;20144;-79
2021/03/03 11:09:36;;;;;;;43.85;23.83;;;7.80;99.90;;;;;;5008835;28;20065;-78
2021/03/03 11:12:04;;;;;;;48.97;25.65;;;7.90;99.90;;;;;;5009135;28;20050;-80
2021/03/03 11:14:31;;;;;;;46.83;24.38;;;8.00;99.90;;;;;;5009427;28;20049;-80
2021/03/03 11:17:00;;;;;;;43.25;24.27;;;8.10;99.90;;;;;;4986552;28;20145;-78
2021/03/03 11:19:28;;;;;;;40.78;22.77;;;8.30;99.90;;;;;;5009226;28;20729;-80
2021/03/03 11:21:56;;;;;;;45.55;23.33;;;8.40;99.90;;;;;;4998369;28;20133;-78
2021/03/03 11:24:24;;;;;;;42.80;22.33;;;8.50;99.90;;;;;;5004757;28;20058;-79
2021/03/03 11:26:51;;;;;;;43.78;24.08;;;8.60;99.90;;;;;;5002431;28;20077;-82
2021/03/03 11:29:17;;;;;;;48.08;24.27;;;8.60;99.90;;;;;;5012959;28;20085;-80
2021/03/03 11:31:44;;;;;;;41.35;23.25;;;8.70;99.90;;;;;;5011908;28;20128;-80
2021/03/03 11:34:11;;;;;;;45.90;24.77;;;8.70;99.90;;;;;;4989471;28;20054;-81
2021/03/03 11:36:38;;;;;;;43.63;24.40;;;8.80;99.90;;;;;;5003680;28;20450;-81
2021/03/03 11:39:05;;;;;;;45.47;25.33;;;8.70;99.90;;;;;;4995024;28;20049;-80
2021/03/03 11:41:31;;;;;;;45.10;23.00;;;8.80;99.90;;;;;;4994124;28;20077;-80
2021/03/03 11:43:57;;;;;;;47.75;24.08;;;8.90;99.90;;;;;;5011364;28;20054;-81
2021/03/03 11:46:24;;;;;;;43.17;23.38;;;9.00;99.90;;;;;;5000497;28;20192;-80
2021/03/03 11:48:50;;;;;;;49.30;25.05;;;9.10;99.90;;;;;;5007243;28;20448;-80
2021/03/03 11:51:17;;;;;;;42.70;22.88;;;9.10;99.90;;;;;;5009070;28;20054;-78
2021/03/03 11:53:43;;;;;;;45.28;25.00;;;9.00;99.90;;;;;;4997107;28;20066;-81
2021/03/03 11:56:09;;;;;;;41.63;23.83;;;9.00;99.90;;;;;;4994279;28;20056;-81
2021/03/03 11:58:36;;;;;;;43.55;24.15;;;9.00;99.90;;;;;;5008900;28;20058;-83
2021/03/03 12:01:04;;;;;;;48.42;25.17;;;9.00;99.90;;;;;;5013523;28;20046;-83
2021/03/03 12:03:32;;;;;;;46.25;25.58;;;9.00;99.90;;;;;;5015245;28;20115;-81
2021/03/03 12:05:58;;;;;;;49.03;25.88;;;9.10;99.90;;;;;;5002486;28;20058;-79
2021/03/03 12:08:25;;;;;;;46.72;25.08;;;9.10;99.90;;;;;;5000710;28;20053;-80
2021/03/03 12:10:51;;;;;;;48.13;25.17;;;9.10;99.90;;;;;;5010637;28;20479;-80
2021/03/03 12:13:18;;;;;;;52.65;25.95;;;9.10;99.90;;;;;;5005962;28;20077;-80
2021/03/03 12:15:44;;;;;;;49.00;25.13;;;9.10;99.90;;;;;;5008982;28;20136;-82
2021/03/03 12:18:11;;;;;;;46.22;24.23;;;9.10;99.90;;;;;;4990425;28;20061;-81
2021/03/03 12:20:38;;;;;;;47.95;25.33;;;9.20;99.90;;;;;;4985427;28;20058;-81
2021/03/03 12:23:04;;;;;;;49.55;26.20;;;9.20;99.90;;;;;;4999674;28;20092;-81
2021/03/03 12:25:32;;;;;;;50.47;26.25;;;9.30;99.90;;;;;;5009609;28;20046;-81
2021/03/03 12:27:59;;;;;;;51.33;26.45;;;9.30;99.90;;;;;;5012813;28;20054;-79
2021/03/03 12:30:26;;;;;;;54.63;26.92;;;9.40;99.90;;;;;;4990562;28;20064;-81
2021/03/03 12:32:53;;;;;;;49.83;26.27;;;9.50;99.90;;;;;;4992346;28;20058;-80
2021/03/03 12:35:19;;;;;;;51.35;27.05;;;9.60;99.90;;;;;;4995899;28;20971;-82
2021/03/03 12:37:46;;;;;;;53.50;26.40;;;9.60;99.90;;;;;;5010539;28;20050;-81
2021/03/03 12:40:12;;;;;;;52.03;26.10;;;9.60;99.90;;;;;;5002777;28;20469;-79
2021/03/03 12:42:39;;;;;;;53.67;26.45;;;9.70;99.90;;;;;;5011081;28;20049;-81
2021/03/03 12:45:06;;;;;;;56.10;27.52;;;9.60;99.90;;;;;;4998572;28;20049;-81